sensor_id;sensor_type;location;lat;lon;timestamp;pressure;altitude;pressure_sealevel;temperature;humidity
8075;BME280;4080;42.676;23.372;2023-02-16T00:01:19;96330.50;;;0.20;100.00
8075;BME280;4080;42.676;23.372;2023-02-16T00:03:47;96325.13;;;0.22;100.00
8075;BME280;4080;42.676;23.372;2023-02-16T00:06:13;96321.09;;;0.19;100.00
8075;BME280;4080;42.676;23.372;2023-02-16T00:08:45;96314.34;;;0.10;100.00
8075;BME280;4080;42.676;23.372;2023-02-16T00:11:16;96278.50;;;-0.17;100.00
8075;BME280;4080;42.676;23.372;2023-02-16T00:14:01;96320.97;;;0.13;100.00
8075;BME280;4080;42.676;23.372;2023-02-16T00:16:28;96322.47;;;0.07;100.00
8075;BME280;4080;42.676;23.372;2023-02-16T00:18:55;96321.53;;;0.00;100.00
8075;BME280;4080;42.676;23.372;2023-02-16T00:21:21;96317.47;;;-0.03;100.00
8075;BME280;4080;42.676;23.372;2023-02-16T00:23:49;96281.31;;;-0.27;100.00
8075;BME280;4080;42.676;23.372;2023-02-16T00:26:19;96322.84;;;-0.04;100.00
8075;BME280;4080;42.676;23.372;2023-02-16T00:28:48;96321.03;;;-0.04;100.00
8075;BME280;4080;42.676;23.372;2023-02-16T00:31:17;96322.38;;;-0.08;100.00
8075;BME280;4080;42.676;23.372;2023-02-16T00:33:45;96324.50;;;-0.11;100.00
8075;BME280;4080;42.676;23.372;2023-02-16T00:36:12;96314.28;;;-0.13;100.00
8075;BME280;4080;42.676;23.372;2023-02-16T00:38:38;96317.69;;;-0.12;100.00
8075;BME280;4080;42.676;23.372;2023-02-16T00:41:14;96319.31;;;-0.11;100.00
8075;BME280;4080;42.676;23.372;2023-02-16T00:44:03;96320.13;;;-0.11;100.00
8075;BME280;4080;42.676;23.372;2023-02-16T00:46:30;96322.88;;;-0.12;100.00
8075;BME280;4080;42.676;23.372;2023-02-16T00:48:57;96315.09;;;-0.12;100.00
8075;BME280;4080;42.676;23.372;2023-02-16T00:51:23;96316.88;;;-0.13;100.00
8075;BME280;4080;42.676;23.372;2023-02-16T00:53:50;96320.50;;;-0.22;100.00
8075;BME280;4080;42.676;23.372;2023-02-16T00:56:19;96315.53;;;-0.40;100.00
8075;BME280;4080;42.676;23.372;2023-02-16T00:58:48;96313.63;;;-0.54;100.00
8075;BME280;4080;42.676;23.372;2023-02-16T01:01:17;96306.38;;;-0.67;100.00
8075;BME280;4080;42.676;23.372;2023-02-16T01:03:45;96319.16;;;-0.65;100.00
8075;BME280;4080;42.676;23.372;2023-02-16T01:06:12;96318.19;;;-0.64;100.00
8075;BME280;4080;42.676;23.372;2023-02-16T01:09:08;96315.59;;;-0.64;100.00
8075;BME280;4080;42.676;23.372;2023-02-16T01:11:58;96303.28;;;-0.70;100.00
8075;BME280;4080;42.676;23.372;2023-02-16T01:14:25;96305.59;;;-0.75;100.00
8075;BME280;4080;42.676;23.372;2023-02-16T01:16:52;96304.44;;;-0.73;100.00
8075;BME280;4080;42.676;23.372;2023-02-16T01:19:18;96300.41;;;-0.75;100.00
8075;BME280;4080;42.676;23.372;2023-02-16T01:21:45;96294.09;;;-0.81;100.00
8075;BME280;4080;42.676;23.372;2023-02-16T01:24:12;96298.97;;;-0.86;100.00
8075;BME280;4080;42.676;23.372;2023-02-16T01:26:41;96297.19;;;-0.94;100.00
8075;BME280;4080;42.676;23.372;2023-02-16T01:29:13;96289.25;;;-0.92;100.00
8075;BME280;4080;42.676;23.372;2023-02-16T01:31:40;96272.09;;;-0.93;100.00
8075;BME280;4080;42.676;23.372;2023-02-16T01:34:07;96289.38;;;-0.69;100.00
8075;BME280;4080;42.676;23.372;2023-02-16T01:36:36;96271.88;;;-0.67;100.00
8075;BME280;4080;42.676;23.372;2023-02-16T01:39:04;96278.16;;;-0.53;100.00
8075;BME280;4080;42.676;23.372;2023-02-16T01:41:44;96268.78;;;-0.54;100.00
8075;BME280;4080;42.676;23.372;2023-02-16T01:44:15;96274.84;;;-0.39;100.00
8075;BME280;4080;42.676;23.372;2023-02-16T01:46:47;96274.38;;;-0.43;100.00
8075;BME280;4080;42.676;23.372;2023-02-16T01:49:16;96275.44;;;-0.60;100.00
8075;BME280;4080;42.676;23.372;2023-02-16T01:51:49;96271.59;;;-0.80;100.00
8075;BME280;4080;42.676;23.372;2023-02-16T01:54:25;96266.09;;;-0.94;100.00
8075;BME280;4080;42.676;23.372;2023-02-16T01:56:59;96277.78;;;-0.89;100.00
8075;BME280;4080;42.676;23.372;2023-02-16T01:59:36;96270.66;;;-0.87;100.00
8075;BME280;4080;42.676;23.372;2023-02-16T02:02:11;96274.34;;;-0.82;100.00
8075;BME280;4080;42.676;23.372;2023-02-16T02:04:43;96269.31;;;-0.75;100.00
8075;BME280;4080;42.676;23.372;2023-02-16T02:07:34;96270.25;;;-0.68;100.00
8075;BME280;4080;42.676;23.372;2023-02-16T02:10:08;96267.81;;;-0.70;100.00
8075;BME280;4080;42.676;23.372;2023-02-16T02:12:41;96270.88;;;-0.66;100.00
8075;BME280;4080;42.676;23.372;2023-02-16T02:15:10;96227.75;;;-0.90;100.00
8075;BME280;4080;42.676;23.372;2023-02-16T02:17:38;96259.56;;;-0.65;100.00
8075;BME280;4080;42.676;23.372;2023-02-16T02:20:11;96229.53;;;-0.90;100.00
8075;BME280;4080;42.676;23.372;2023-02-16T02:23:04;96274.75;;;-0.62;100.00
8075;BME280;4080;42.676;23.372;2023-02-16T02:29:26;96274.00;;;-0.79;100.00
8075;BME280;4080;42.676;23.372;2023-02-16T02:32:03;96265.28;;;-0.86;100.00
8075;BME280;4080;42.676;23.372;2023-02-16T02:34:44;96229.41;;;-1.13;100.00
8075;BME280;4080;42.676;23.372;2023-02-16T02:37:21;96262.06;;;-0.96;100.00
8075;BME280;4080;42.676;23.372;2023-02-16T02:39:59;96246.06;;;-1.08;100.00
8075;BME280;4080;42.676;23.372;2023-02-16T02:42:34;96270.03;;;-1.06;100.00
8075;BME280;4080;42.676;23.372;2023-02-16T02:45:08;96260.81;;;-1.08;100.00
8075;BME280;4080;42.676;23.372;2023-02-16T02:47:38;96266.13;;;-1.02;100.00
8075;BME280;4080;42.676;23.372;2023-02-16T02:50:31;96271.63;;;-0.97;100.00
8075;BME280;4080;42.676;23.372;2023-02-16T02:53:03;96263.19;;;-0.99;100.00
8075;BME280;4080;42.676;23.372;2023-02-16T02:55:31;96265.81;;;-1.07;100.00
8075;BME280;4080;42.676;23.372;2023-02-16T02:58:18;96266.78;;;-1.08;100.00
8075;BME280;4080;42.676;23.372;2023-02-16T03:01:07;96276.81;;;-1.05;100.00
8075;BME280;4080;42.676;23.372;2023-02-16T03:03:38;96274.88;;;-1.03;100.00
8075;BME280;4080;42.676;23.372;2023-02-16T03:06:09;96208.56;;;-1.36;100.00
8075;BME280;4080;42.676;23.372;2023-02-16T03:08:39;96268.06;;;-0.96;100.00
8075;BME280;4080;42.676;23.372;2023-02-16T03:11:11;96263.53;;;-1.02;100.00
8075;BME280;4080;42.676;23.372;2023-02-16T03:14:01;96269.38;;;-0.91;100.00
8075;BME280;4080;42.676;23.372;2023-02-16T03:16:34;96238.97;;;-1.14;100.00
8075;BME280;4080;42.676;23.372;2023-02-16T03:19:04;96233.47;;;-1.11;100.00
8075;BME280;4080;42.676;23.372;2023-02-16T03:21:50;96270.66;;;-0.87;100.00
8075;BME280;4080;42.676;23.372;2023-02-16T03:24:34;96268.84;;;-0.95;100.00
8075;BME280;4080;42.676;23.372;2023-02-16T03:27:21;96257.06;;;-1.06;100.00
8075;BME280;4080;42.676;23.372;2023-02-16T03:30:09;96270.47;;;-0.94;100.00
8075;BME280;4080;42.676;23.372;2023-02-16T03:32:38;96238.88;;;-0.81;100.00
8075;BME280;4080;42.676;23.372;2023-02-16T03:35:06;96264.56;;;-0.55;100.00
8075;BME280;4080;42.676;23.372;2023-02-16T03:37:33;96249.53;;;-0.68;100.00
8075;BME280;4080;42.676;23.372;2023-02-16T03:40:00;96266.84;;;-0.69;100.00
8075;BME280;4080;42.676;23.372;2023-02-16T03:42:48;96236.97;;;-0.96;100.00
8075;BME280;4080;42.676;23.372;2023-02-16T03:45:16;96259.28;;;-0.78;100.00
8075;BME280;4080;42.676;23.372;2023-02-16T03:47:44;96261.88;;;-0.78;100.00
8075;BME280;4080;42.676;23.372;2023-02-16T03:50:10;96259.28;;;-0.78;100.00
8075;BME280;4080;42.676;23.372;2023-02-16T03:52:37;96262.69;;;-0.78;100.00
8075;BME280;4080;42.676;23.372;2023-02-16T03:55:04;96269.66;;;-0.78;100.00
8075;BME280;4080;42.676;23.372;2023-02-16T03:57:31;96263.34;;;-0.84;100.00
8075;BME280;4080;42.676;23.372;2023-02-16T03:59:58;96265.78;;;-0.82;100.00
8075;BME280;4080;42.676;23.372;2023-02-16T04:02:26;96269.66;;;-0.86;100.00
8075;BME280;4080;42.676;23.372;2023-02-16T04:04:54;96177.84;;;-1.56;100.00
8075;BME280;4080;42.676;23.372;2023-02-16T04:07:21;96264.03;;;-1.06;100.00
8075;BME280;4080;42.676;23.372;2023-02-16T04:09:48;96265.00;;;-1.07;100.00
8075;BME280;4080;42.676;23.372;2023-02-16T04:12:14;96255.31;;;-1.13;100.00
8075;BME280;4080;42.676;23.372;2023-02-16T04:14:58;96253.69;;;-1.14;100.00
8075;BME280;4080;42.676;23.372;2023-02-16T04:17:25;96250.47;;;-1.16;100.00
8075;BME280;4080;42.676;23.372;2023-02-16T04:19:52;96246.41;;;-1.27;100.00
8075;BME280;4080;42.676;23.372;2023-02-16T04:22:20;96245.44;;;-1.26;100.00
8075;BME280;4080;42.676;23.372;2023-02-16T04:24:46;96252.88;;;-1.23;100.00
8075;BME280;4080;42.676;23.372;2023-02-16T04:27:13;96247.56;;;-1.21;100.00
8075;BME280;4080;42.676;23.372;2023-02-16T04:29:40;96248.66;;;-1.24;100.00
8075;BME280;4080;42.676;23.372;2023-02-16T04:32:06;96246.25;;;-1.26;100.00
8075;BME280;4080;42.676;23.372;2023-02-16T04:34:33;96248.19;;;-1.28;100.00
8075;BME280;4080;42.676;23.372;2023-02-16T04:37:00;96251.75;;;-1.29;100.00
8075;BME280;4080;42.676;23.372;2023-02-16T04:39:29;96253.69;;;-1.31;100.00
8075;BME280;4080;42.676;23.372;2023-02-16T04:41:55;96255.50;;;-1.39;100.00
8075;BME280;4080;42.676;23.372;2023-02-16T04:44:22;96258.56;;;-1.44;100.00
8075;BME280;4080;42.676;23.372;2023-02-16T04:46:49;96257.28;;;-1.48;100.00
8075;BME280;4080;42.676;23.372;2023-02-16T04:49:15;96253.38;;;-1.60;100.00
8075;BME280;4080;42.676;23.372;2023-02-16T04:51:42;96256.94;;;-1.69;100.00
8075;BME280;4080;42.676;23.372;2023-02-16T04:54:09;96212.47;;;-2.05;100.00
8075;BME280;4080;42.676;23.372;2023-02-16T04:56:37;96255.81;;;-1.83;100.00
8075;BME280;4080;42.676;23.372;2023-02-16T04:59:04;96261.00;;;-1.83;100.00
8075;BME280;4080;42.676;23.372;2023-02-16T05:01:30;96249.31;;;-1.95;100.00
8075;BME280;4080;42.676;23.372;2023-02-16T05:03:57;96261.59;;;-1.97;100.00
8075;BME280;4080;42.676;23.372;2023-02-16T05:06:24;96267.88;;;-2.08;100.00
8075;BME280;4080;42.676;23.372;2023-02-16T05:08:50;96271.25;;;-2.15;100.00
8075;BME280;4080;42.676;23.372;2023-02-16T05:11:17;96263.63;;;-2.25;100.00
8075;BME280;4080;42.676;23.372;2023-02-16T05:14:03;96271.53;;;-2.35;100.00
8075;BME280;4080;42.676;23.372;2023-02-16T05:16:47;96275.53;;;-2.40;100.00
8075;BME280;4080;42.676;23.372;2023-02-16T05:19:14;96242.97;;;-2.67;100.00
8075;BME280;4080;42.676;23.372;2023-02-16T05:21:40;96267.75;;;-2.48;100.00
8075;BME280;4080;42.676;23.372;2023-02-16T05:24:09;96272.91;;;-2.48;100.00
8075;BME280;4080;42.676;23.372;2023-02-16T05:26:37;96238.94;;;-2.70;100.00
8075;BME280;4080;42.676;23.372;2023-02-16T05:29:06;96281.53;;;-2.40;100.00
8075;BME280;4080;42.676;23.372;2023-02-16T05:31:33;96278.88;;;-2.06;100.00
8075;BME280;4080;42.676;23.372;2023-02-16T05:33:59;96275.66;;;-1.92;100.00
8075;BME280;4080;42.676;23.372;2023-02-16T05:36:26;96279.59;;;-1.63;100.00
8075;BME280;4080;42.676;23.372;2023-02-16T05:38:53;96287.22;;;-1.21;100.00
8075;BME280;4080;42.676;23.372;2023-02-16T05:41:20;96288.78;;;-0.87;100.00
8075;BME280;4080;42.676;23.372;2023-02-16T05:43:50;96289.09;;;-0.35;100.00
8075;BME280;4080;42.676;23.372;2023-02-16T05:46:18;96294.28;;;0.27;100.00
8075;BME280;4080;42.676;23.372;2023-02-16T05:48:45;96300.34;;;0.88;100.00
8075;BME280;4080;42.676;23.372;2023-02-16T05:51:12;96296.66;;;1.49;100.00
8075;BME280;4080;42.676;23.372;2023-02-16T05:53:38;96296.59;;;2.08;100.00
8075;BME280;4080;42.676;23.372;2023-02-16T05:56:06;96296.47;;;2.53;100.00
8075;BME280;4080;42.676;23.372;2023-02-16T05:58:32;96310.41;;;3.09;100.00
8075;BME280;4080;42.676;23.372;2023-02-16T06:00:59;96299.53;;;3.33;100.00
8075;BME280;4080;42.676;23.372;2023-02-16T06:03:27;96308.22;;;3.68;100.00
8075;BME280;4080;42.676;23.372;2023-02-16T06:05:56;96312.09;;;3.86;100.00
8075;BME280;4080;42.676;23.372;2023-02-16T06:08:23;96269.19;;;3.60;100.00
8075;BME280;4080;42.676;23.372;2023-02-16T06:10:51;96325.22;;;3.99;100.00
8075;BME280;4080;42.676;23.372;2023-02-16T06:13:19;96329.88;;;4.03;100.00
8075;BME280;4080;42.676;23.372;2023-02-16T06:15:46;96327.88;;;4.05;100.00
8075;BME280;4080;42.676;23.372;2023-02-16T06:18:13;96338.50;;;4.04;100.00
8075;BME280;4080;42.676;23.372;2023-02-16T06:20:41;96341.75;;;4.13;100.00
8075;BME280;4080;42.676;23.372;2023-02-16T06:23:09;96312.34;;;3.97;100.00
8075;BME280;4080;42.676;23.372;2023-02-16T06:25:37;96343.34;;;4.14;100.00
8075;BME280;4080;42.676;23.372;2023-02-16T06:28:04;96355.59;;;4.07;100.00
8075;BME280;4080;42.676;23.372;2023-02-16T06:30:31;96347.72;;;4.00;100.00
8075;BME280;4080;42.676;23.372;2023-02-16T06:32:59;96347.94;;;4.05;100.00
8075;BME280;4080;42.676;23.372;2023-02-16T06:35:26;96354.16;;;4.04;100.00
8075;BME280;4080;42.676;23.372;2023-02-16T06:37:54;96361.03;;;4.12;100.00
8075;BME280;4080;42.676;23.372;2023-02-16T06:40:21;96361.25;;;4.17;100.00
8075;BME280;4080;42.676;23.372;2023-02-16T06:42:48;96365.69;;;4.23;100.00
8075;BME280;4080;42.676;23.372;2023-02-16T06:45:14;96369.56;;;4.33;100.00
8075;BME280;4080;42.676;23.372;2023-02-16T06:47:41;96364.38;;;4.47;100.00
8075;BME280;4080;42.676;23.372;2023-02-16T06:50:09;96360.22;;;4.65;100.00
8075;BME280;4080;42.676;23.372;2023-02-16T06:52:38;96356.81;;;4.72;100.00
8075;BME280;4080;42.676;23.372;2023-02-16T06:55:07;96362.31;;;4.90;100.00
8075;BME280;4080;42.676;23.372;2023-02-16T06:57:34;96367.94;;;5.00;100.00
8075;BME280;4080;42.676;23.372;2023-02-16T07:00:01;96370.56;;;5.00;100.00
8075;BME280;4080;42.676;23.372;2023-02-16T07:02:28;96363.06;;;4.84;100.00
8075;BME280;4080;42.676;23.372;2023-02-16T07:04:55;96345.16;;;4.74;100.00
8075;BME280;4080;42.676;23.372;2023-02-16T07:07:22;96362.31;;;4.90;100.00
8075;BME280;4080;42.676;23.372;2023-02-16T07:09:49;96360.31;;;5.38;100.00
8075;BME280;4080;42.676;23.372;2023-02-16T07:12:17;96345.47;;;6.68;100.00
8075;BME280;4080;42.676;23.372;2023-02-16T07:14:44;96347.44;;;8.03;100.00
8075;BME280;4080;42.676;23.372;2023-02-16T07:17:11;96362.00;;;8.73;100.00
8075;BME280;4080;42.676;23.372;2023-02-16T07:19:37;96341.16;;;8.59;100.00
8075;BME280;4080;42.676;23.372;2023-02-16T07:22:04;96355.97;;;8.54;92.82
8075;BME280;4080;42.676;23.372;2023-02-16T07:24:31;96360.06;;;8.31;92.51
8075;BME280;4080;42.676;23.372;2023-02-16T07:26:57;96321.78;;;7.81;92.95
8075;BME280;4080;42.676;23.372;2023-02-16T07:29:25;96350.91;;;7.79;95.19
8075;BME280;4080;42.676;23.372;2023-02-16T07:31:52;96345.84;;;7.59;96.53
8075;BME280;4080;42.676;23.372;2023-02-16T07:34:20;96334.22;;;7.48;96.84
8075;BME280;4080;42.676;23.372;2023-02-16T07:36:48;96340.94;;;7.63;97.32
8075;BME280;4080;42.676;23.372;2023-02-16T07:39:15;96344.56;;;7.68;96.50
8075;BME280;4080;42.676;23.372;2023-02-16T07:41:41;96344.16;;;7.65;94.94
8075;BME280;4080;42.676;23.372;2023-02-16T07:44:08;96341.34;;;7.66;96.50
8075;BME280;4080;42.676;23.372;2023-02-16T07:46:36;96337.19;;;7.77;97.60
8075;BME280;4080;42.676;23.372;2023-02-16T07:49:03;96331.28;;;7.82;95.95
8075;BME280;4080;42.676;23.372;2023-02-16T07:51:31;96331.13;;;7.95;96.19
8075;BME280;4080;42.676;23.372;2023-02-16T07:53:58;96335.09;;;8.04;96.30
8075;BME280;4080;42.676;23.372;2023-02-16T07:56:29;96310.19;;;7.88;94.38
8075;BME280;4080;42.676;23.372;2023-02-16T07:58:57;96346.69;;;8.15;95.06
8075;BME280;4080;42.676;23.372;2023-02-16T08:01:25;96335.16;;;8.16;95.88
8075;BME280;4080;42.676;23.372;2023-02-16T08:03:53;96347.44;;;8.40;95.68
8075;BME280;4080;42.676;23.372;2023-02-16T08:06:20;96354.09;;;8.61;93.95
8075;BME280;4080;42.676;23.372;2023-02-16T08:08:47;96348.41;;;8.76;93.68
8075;BME280;4080;42.676;23.372;2023-02-16T08:11:16;96217.56;;;7.93;93.93
8075;BME280;4080;42.676;23.372;2023-02-16T08:13:43;96349.69;;;8.85;94.54
8075;BME280;4080;42.676;23.372;2023-02-16T08:16:12;96349.75;;;8.96;94.00
8075;BME280;4080;42.676;23.372;2023-02-16T08:18:39;96336.03;;;9.06;93.73
8075;BME280;4080;42.676;23.372;2023-02-16T08:21:09;96354.75;;;9.40;91.63
8075;BME280;4080;42.676;23.372;2023-02-16T08:23:39;96349.38;;;9.46;91.12
8075;BME280;4080;42.676;23.372;2023-02-16T08:26:08;96358.81;;;9.54;90.92
8075;BME280;4080;42.676;23.372;2023-02-16T08:28:36;96363.38;;;9.58;91.16
8075;BME280;4080;42.676;23.372;2023-02-16T08:31:04;96363.63;;;9.69;91.17
8075;BME280;4080;42.676;23.372;2023-02-16T08:33:32;96362.94;;;9.85;89.33
8075;BME280;4080;42.676;23.372;2023-02-16T08:35:59;96365.34;;;9.98;88.29
8075;BME280;4080;42.676;23.372;2023-02-16T08:38:29;96368.31;;;10.13;88.14
8075;BME280;4080;42.676;23.372;2023-02-16T08:40:58;96347.31;;;10.18;87.66
8075;BME280;4080;42.676;23.372;2023-02-16T08:43:25;96366.16;;;10.62;87.38
8075;BME280;4080;42.676;23.372;2023-02-16T08:45:52;96360.81;;;10.85;86.01
8075;BME280;4080;42.676;23.372;2023-02-16T08:48:19;96367.88;;;10.97;86.25
8075;BME280;4080;42.676;23.372;2023-02-16T08:50:47;96370.75;;;10.95;85.80
8075;BME280;4080;42.676;23.372;2023-02-16T08:53:18;96359.59;;;11.05;85.55
8075;BME280;4080;42.676;23.372;2023-02-16T08:55:52;96359.44;;;11.28;85.04
8075;BME280;4080;42.676;23.372;2023-02-16T08:58:20;96333.59;;;11.30;82.33
8075;BME280;4080;42.676;23.372;2023-02-16T09:00:46;96356.91;;;11.50;82.82
8075;BME280;4080;42.676;23.372;2023-02-16T09:03:14;96363.63;;;11.58;82.09
8075;BME280;4080;42.676;23.372;2023-02-16T09:05:43;96356.75;;;11.73;81.11
8075;BME280;4080;42.676;23.372;2023-02-16T09:08:10;96345.53;;;11.83;80.67
8075;BME280;4080;42.676;23.372;2023-02-16T09:10:37;96356.09;;;12.00;80.31
8075;BME280;4080;42.676;23.372;2023-02-16T09:13:05;96346.47;;;11.77;81.10
8075;BME280;4080;42.676;23.372;2023-02-16T09:15:35;96347.22;;;11.89;81.94
8075;BME280;4080;42.676;23.372;2023-02-16T09:18:02;96341.59;;;12.02;79.05
8075;BME280;4080;42.676;23.372;2023-02-16T09:20:28;96350.38;;;12.08;79.81
8075;BME280;4080;42.676;23.372;2023-02-16T09:22:55;96340.38;;;12.10;78.88
8075;BME280;4080;42.676;23.372;2023-02-16T09:25:22;96347.13;;;12.23;79.22
8075;BME280;4080;42.676;23.372;2023-02-16T09:27:49;96339.69;;;12.20;78.46
8075;BME280;4080;42.676;23.372;2023-02-16T09:30:18;96347.13;;;12.23;78.33
8075;BME280;4080;42.676;23.372;2023-02-16T09:32:45;96339.84;;;12.30;78.14
8075;BME280;4080;42.676;23.372;2023-02-16T09:35:12;96336.16;;;12.31;76.66
8075;BME280;4080;42.676;23.372;2023-02-16T09:37:40;96326.06;;;12.28;78.05
8075;BME280;4080;42.676;23.372;2023-02-16T09:40:09;96330.13;;;12.57;77.10
8075;BME280;4080;42.676;23.372;2023-02-16T09:42:52;96326.53;;;12.68;75.81
8075;BME280;4080;42.676;23.372;2023-02-16T09:45:23;96324.09;;;12.89;76.38
8075;BME280;4080;42.676;23.372;2023-02-16T09:47:52;96314.94;;;13.01;74.25
8075;BME280;4080;42.676;23.372;2023-02-16T09:50:21;96301.38;;;12.93;74.36
8075;BME280;4080;42.676;23.372;2023-02-16T09:52:52;96327.66;;;13.26;73.29
8075;BME280;4080;42.676;23.372;2023-02-16T09:55:20;96278.31;;;13.20;72.27
8075;BME280;4080;42.676;23.372;2023-02-16T09:57:56;96305.88;;;13.51;70.42
8075;BME280;4080;42.676;23.372;2023-02-16T10:00:39;96302.06;;;13.42;72.22
8075;BME280;4080;42.676;23.372;2023-02-16T10:03:19;96296.56;;;12.90;70.75
8075;BME280;4080;42.676;23.372;2023-02-16T10:05:55;96295.94;;;12.83;73.59
8075;BME280;4080;42.676;23.372;2023-02-16T10:08:29;96301.63;;;13.18;72.05
8075;BME280;4080;42.676;23.372;2023-02-16T10:11:02;96288.53;;;13.39;70.46
8075;BME280;4080;42.676;23.372;2023-02-16T10:13:55;96294.75;;;13.54;71.15
8075;BME280;4080;42.676;23.372;2023-02-16T10:16:29;96287.72;;;13.75;71.55
8075;BME280;4080;42.676;23.372;2023-02-16T10:18:58;96289.25;;;14.08;69.74
8075;BME280;4080;42.676;23.372;2023-02-16T10:21:28;96282.13;;;14.24;67.67
8075;BME280;4080;42.676;23.372;2023-02-16T10:23:59;96242.56;;;14.17;66.56
8075;BME280;4080;42.676;23.372;2023-02-16T10:26:30;96280.56;;;14.28;67.54
8075;BME280;4080;42.676;23.372;2023-02-16T10:29:01;96221.22;;;13.87;67.13
8075;BME280;4080;42.676;23.372;2023-02-16T10:31:37;96275.84;;;14.40;66.29
8075;BME280;4080;42.676;23.372;2023-02-16T10:34:19;96264.13;;;14.36;65.11
8075;BME280;4080;42.676;23.372;2023-02-16T10:37:02;96262.56;;;14.40;65.52
8075;BME280;4080;42.676;23.372;2023-02-16T10:39:38;96239.63;;;14.09;65.58
8075;BME280;4080;42.676;23.372;2023-02-16T10:42:16;96262.50;;;14.25;66.12
8075;BME280;4080;42.676;23.372;2023-02-16T10:44:49;96255.31;;;14.15;65.98
8075;BME280;4080;42.676;23.372;2023-02-16T10:47:28;96266.47;;;14.17;66.50
8075;BME280;4080;42.676;23.372;2023-02-16T10:49:57;96253.50;;;14.31;65.70
8075;BME280;4080;42.676;23.372;2023-02-16T10:52:27;96247.63;;;14.24;64.53
8075;BME280;4080;42.676;23.372;2023-02-16T10:54:55;96248.13;;;14.16;65.98
8075;BME280;4080;42.676;23.372;2023-02-16T10:57:25;96245.50;;;14.16;64.90
8075;BME280;4080;42.676;23.372;2023-02-16T10:59:53;96192.56;;;13.79;66.24
8075;BME280;4080;42.676;23.372;2023-02-16T11:02:25;96216.84;;;14.28;66.13
8075;BME280;4080;42.676;23.372;2023-02-16T11:04:54;96207.13;;;14.59;64.24
8075;BME280;4080;42.676;23.372;2023-02-16T11:07:23;96216.47;;;14.77;63.48
8075;BME280;4080;42.676;23.372;2023-02-16T11:09:51;96228.59;;;14.42;63.56
8075;BME280;4080;42.676;23.372;2023-02-16T11:12:26;96226.19;;;14.41;64.75
8075;BME280;4080;42.676;23.372;2023-02-16T11:14:57;96215.91;;;14.54;63.60
8075;BME280;4080;42.676;23.372;2023-02-16T11:17:26;96221.88;;;14.14;63.89
8075;BME280;4080;42.676;23.372;2023-02-16T11:19:55;96216.75;;;13.97;66.00
8075;BME280;4080;42.676;23.372;2023-02-16T11:22:27;96214.34;;;13.96;66.47
8075;BME280;4080;42.676;23.372;2023-02-16T11:24:53;96209.13;;;14.11;66.30
8075;BME280;4080;42.676;23.372;2023-02-16T11:27:21;96207.56;;;14.25;65.35
8075;BME280;4080;42.676;23.372;2023-02-16T11:29:49;96207.31;;;14.32;66.78
8075;BME280;4080;42.676;23.372;2023-02-16T11:32:17;96202.63;;;14.49;64.95
8075;BME280;4080;42.676;23.372;2023-02-16T11:34:48;96185.00;;;14.28;63.63
8075;BME280;4080;42.676;23.372;2023-02-16T11:37:22;96202.50;;;14.24;64.84
8075;BME280;4080;42.676;23.372;2023-02-16T11:39:52;96181.28;;;14.29;65.13
8075;BME280;4080;42.676;23.372;2023-02-16T11:42:26;96177.13;;;14.53;65.19
8075;BME280;4080;42.676;23.372;2023-02-16T11:44:56;96180.84;;;14.63;63.46
8075;BME280;4080;42.676;23.372;2023-02-16T11:47:26;96178.47;;;14.61;63.31
8075;BME280;4080;42.676;23.372;2023-02-16T11:50:12;96177.41;;;14.52;62.03
8075;BME280;4080;42.676;23.372;2023-02-16T11:52:43;96171.19;;;14.26;62.26
8075;BME280;4080;42.676;23.372;2023-02-16T11:55:20;96169.88;;;14.23;62.92
8075;BME280;4080;42.676;23.372;2023-02-16T11:57:47;96178.59;;;14.09;63.40
8075;BME280;4080;42.676;23.372;2023-02-16T12:00:18;96166.63;;;14.06;64.54
8075;BME280;4080;42.676;23.372;2023-02-16T12:05:53;96167.63;;;13.32;65.15
8075;BME280;4080;42.676;23.372;2023-02-16T12:08:36;96167.63;;;13.27;66.10
8075;BME280;4080;42.676;23.372;2023-02-16T12:11:17;96154.75;;;13.14;66.13
8075;BME280;4080;42.676;23.372;2023-02-16T12:13:58;96157.13;;;13.11;65.89
8075;BME280;4080;42.676;23.372;2023-02-16T12:16:34;96144.41;;;13.07;65.52
8075;BME280;4080;42.676;23.372;2023-02-16T12:19:12;96138.19;;;13.24;65.58
8075;BME280;4080;42.676;23.372;2023-02-16T12:21:46;96138.69;;;13.21;65.24
8075;BME280;4080;42.676;23.372;2023-02-16T12:24:23;96129.31;;;13.08;66.72
8075;BME280;4080;42.676;23.372;2023-02-16T12:26:55;96127.66;;;12.97;66.18
8075;BME280;4080;42.676;23.372;2023-02-16T12:29:34;96107.25;;;12.55;66.68
8075;BME280;4080;42.676;23.372;2023-02-16T12:32:17;96116.34;;;12.69;66.77
8075;BME280;4080;42.676;23.372;2023-02-16T12:35:00;96122.19;;;12.77;66.41
8075;BME280;4080;42.676;23.372;2023-02-16T12:37:37;96119.00;;;12.74;66.65
8075;BME280;4080;42.676;23.372;2023-02-16T12:40:17;96119.56;;;12.77;67.07
8075;BME280;4080;42.676;23.372;2023-02-16T12:43:14;96108.69;;;12.73;66.50
8075;BME280;4080;42.676;23.372;2023-02-16T12:45:45;96104.16;;;12.68;66.30
8075;BME280;4080;42.676;23.372;2023-02-16T12:48:22;96100.38;;;12.59;66.55
8075;BME280;4080;42.676;23.372;2023-02-16T12:50:54;96074.00;;;12.37;66.78
8075;BME280;4080;42.676;23.372;2023-02-16T12:53:27;96098.97;;;12.52;66.70
8075;BME280;4080;42.676;23.372;2023-02-16T12:55:59;96096.59;;;12.50;67.75
8075;BME280;4080;42.676;23.372;2023-02-16T12:58:29;96093.56;;;12.68;67.83
8075;BME280;4080;42.676;23.372;2023-02-16T13:01:00;96087.56;;;12.83;67.09
8075;BME280;4080;42.676;23.372;2023-02-16T13:03:37;96084.91;;;12.83;66.37
8075;BME280;4080;42.676;23.372;2023-02-16T13:06:13;96071.31;;;12.69;66.87
8075;BME280;4080;42.676;23.372;2023-02-16T13:08:47;96076.38;;;12.71;66.79
8075;BME280;4080;42.676;23.372;2023-02-16T13:11:20;96075.31;;;12.72;67.11
8075;BME280;4080;42.676;23.372;2023-02-16T13:13:48;96075.59;;;12.75;66.88
8075;BME280;4080;42.676;23.372;2023-02-16T13:16:19;96068.28;;;12.88;66.72
8075;BME280;4080;42.676;23.372;2023-02-16T13:18:49;96063.81;;;12.93;66.05
8075;BME280;4080;42.676;23.372;2023-02-16T13:21:29;96068.91;;;13.05;65.68
8075;BME280;4080;42.676;23.372;2023-02-16T13:24:11;96055.59;;;12.95;65.53
8075;BME280;4080;42.676;23.372;2023-02-16T13:26:58;96068.06;;;12.99;65.58
8075;BME280;4080;42.676;23.372;2023-02-16T13:29:40;96056.03;;;12.82;65.95
8075;BME280;4080;42.676;23.372;2023-02-16T13:32:23;96057.06;;;12.75;65.54
8075;BME280;4080;42.676;23.372;2023-02-16T13:35:04;96050.19;;;12.74;65.92